Terminal Aerodrome Forecast
Issued by NWS

Home | Current Version | Previous Version | Graphics & Text | Print | Product List | Glossary On
Versions: 1 2 3 4 5 6 7 8 9 10 11 12 13 14 15 16 17 18 19 20 21 22
000
FTUS43 KICT 230520
TAFHUT
TAF
KHUT 230520Z 2306/2406 12012KT P6SM OVC025
     FM231000 15012KT 5SM BR OVC015
     FM231500 16019G27KT P6SM BKN015
     FM231900 17023G32KT P6SM SCT035=

USA.gov is the U.S. government's official web portal to all federal, state and local government web resources and services.